createdAt,value
2018-03-22T00:01:15.102Z,39.07
2018-03-22T00:03:43.354Z,39.36
2018-03-22T00:06:12.372Z,39.36
2018-03-22T00:08:40.631Z,39.45
2018-03-22T00:11:08.886Z,39.64
2018-03-22T00:13:37.910Z,40.07
2018-03-22T00:16:06.165Z,40.40
2018-03-22T00:18:35.188Z,40.29
2018-03-22T00:21:03.439Z,40.41
2018-03-22T00:23:32.466Z,40.77
2018-03-22T00:26:00.953Z,40.55
2018-03-22T00:28:29.217Z,40.71
2018-03-22T00:30:57.467Z,41.24
2018-03-22T00:33:26.491Z,41.14
2018-03-22T00:35:54.739Z,41.67
2018-03-22T00:38:22.999Z,42.06
2018-03-22T00:40:52.012Z,42.12
2018-03-22T00:43:20.269Z,41.46
2018-03-22T00:45:49.273Z,42.10
2018-03-22T00:48:17.530Z,42.33
2018-03-22T00:50:46.554Z,42.21
2018-03-22T00:53:14.811Z,42.53
2018-03-22T00:55:43.831Z,42.29
2018-03-22T00:58:12.078Z,42.64
2018-03-22T01:00:41.104Z,42.22
2018-03-22T01:03:09.349Z,42.62
2018-03-22T01:05:38.376Z,42.77
2018-03-22T01:08:06.621Z,43.44
2018-03-22T01:10:34.893Z,43.33
2018-03-22T01:13:03.910Z,42.84
2018-03-22T01:15:32.168Z,43.14
2018-03-22T01:18:00.415Z,43.10
2018-03-22T01:20:28.673Z,43.34
2018-03-22T01:22:56.927Z,43.78
2018-03-22T01:25:25.194Z,43.95
2018-03-22T01:27:53.444Z,44.31
2018-03-22T01:30:37.250Z,43.97
2018-03-22T01:33:05.499Z,43.85
2018-03-22T01:35:33.739Z,43.91
2018-03-22T01:38:01.995Z,44.14
2018-03-22T01:40:31.012Z,44.18
2018-03-22T01:42:59.272Z,44.27
2018-03-22T01:45:28.282Z,44.06
2018-03-22T01:47:56.538Z,43.99
2018-03-22T01:50:25.563Z,44.19
2018-03-22T01:53:11.718Z,44.64
2018-03-22T01:55:40.734Z,44.58
2018-03-22T01:58:08.990Z,44.79
2018-03-22T02:00:38.110Z,44.86
2018-03-22T02:03:06.386Z,45.49
2018-03-22T02:05:34.643Z,45.37
2018-03-22T02:08:03.667Z,45.42
2018-03-22T02:10:31.914Z,45.25
2018-03-22T02:13:00.940Z,45.52
2018-03-22T02:15:29.195Z,45.77
2018-03-22T02:17:57.450Z,45.47
2018-03-22T02:20:25.694Z,45.49
2018-03-22T02:22:53.955Z,45.45
2018-03-22T02:25:22.217Z,45.43
2018-03-22T02:27:50.459Z,45.23
2018-03-22T02:30:19.488Z,45.49
2018-03-22T02:32:47.740Z,45.78
2018-03-22T02:35:15.995Z,45.83
2018-03-22T02:37:45.008Z,46.00
2018-03-22T02:40:13.263Z,46.17
2018-03-22T02:42:42.288Z,46.14
2018-03-22T02:45:10.549Z,46.32
2018-03-22T02:47:38.808Z,46.83
2018-03-22T02:50:07.836Z,46.50
2018-03-22T02:52:36.083Z,46.87
2018-03-22T02:55:05.099Z,47.19
2018-03-22T02:57:33.365Z,47.04
2018-03-22T03:00:01.628Z,47.12
2018-03-22T03:02:30.653Z,47.02
2018-03-22T03:04:58.897Z,46.92
2018-03-22T03:07:27.926Z,47.28
2018-03-22T03:09:56.171Z,47.46
2018-03-22T03:12:25.198Z,47.12
2018-03-22T03:14:53.451Z,47.29
2018-03-22T03:17:21.707Z,47.48
2018-03-22T03:19:50.723Z,47.60
2018-03-22T03:22:18.978Z,47.73
2018-03-22T03:24:48.006Z,47.93
2018-03-22T03:27:16.263Z,48.51
2018-03-22T03:29:44.506Z,48.29
2018-03-22T03:32:12.769Z,48.42
2018-03-22T03:34:41.015Z,48.95
2018-03-22T03:37:09.292Z,48.65
2018-03-22T03:39:37.527Z,49.02
2018-03-22T03:42:06.546Z,48.73
2018-03-22T03:44:34.798Z,49.12
2018-03-22T03:47:03.912Z,49.19
2018-03-22T03:49:32.183Z,49.21
2018-03-22T03:52:00.435Z,49.54
2018-03-22T03:54:29.452Z,49.63
2018-03-22T03:56:57.698Z,50.05
2018-03-22T03:59:26.734Z,50.29
2018-03-22T04:01:54.986Z,50.56
2018-03-22T04:04:23.239Z,50.65
2018-03-22T04:06:52.272Z,50.59
2018-03-22T04:09:20.523Z,50.85
2018-03-22T04:11:49.551Z,50.90
2018-03-22T04:14:17.802Z,51.10
2018-03-22T04:16:46.060Z,51.37
2018-03-22T04:19:15.083Z,52.09
2018-03-22T04:21:43.332Z,52.15
2018-03-22T04:24:12.345Z,52.57
2018-03-22T04:26:40.613Z,52.34
2018-03-22T04:29:09.633Z,52.43
2018-03-22T04:31:37.888Z,52.35
2018-03-22T04:34:06.182Z,52.83
2018-03-22T04:36:34.433Z,52.74
2018-03-22T04:39:02.682Z,52.94
2018-03-22T04:41:30.945Z,52.82
2018-03-22T04:43:59.206Z,52.74
2018-03-22T04:46:27.467Z,53.06
2018-03-22T04:48:55.730Z,53.40
2018-03-22T04:51:23.998Z,53.36
2018-03-22T04:53:52.250Z,52.97
2018-03-22T04:56:21.267Z,53.30
2018-03-22T04:58:49.524Z,52.84
2018-03-22T05:01:18.535Z,52.61
2018-03-22T05:03:46.795Z,52.73
2018-03-22T05:06:15.819Z,52.77
2018-03-22T05:08:44.075Z,52.86
2018-03-22T05:11:12.330Z,52.84
2018-03-22T05:13:41.351Z,53.24
2018-03-22T05:16:09.601Z,53.13
2018-03-22T05:18:38.631Z,53.19
2018-03-22T05:21:06.890Z,53.28
2018-03-22T05:23:35.146Z,53.52
2018-03-22T05:26:04.170Z,53.84
2018-03-22T05:28:32.543Z,53.96
2018-03-22T05:31:00.786Z,53.41
2018-03-22T05:33:29.803Z,53.93
2018-03-22T05:35:58.058Z,53.74
2018-03-22T05:38:27.080Z,53.94
2018-03-22T05:40:55.334Z,53.97
2018-03-22T05:43:24.346Z,54.21
2018-03-22T05:45:52.624Z,53.68
2018-03-22T05:48:20.863Z,53.81
2018-03-22T05:50:49.885Z,53.84
2018-03-22T05:53:18.132Z,53.80
2018-03-22T05:55:47.155Z,53.98
2018-03-22T05:58:15.407Z,54.81
2018-03-22T06:00:44.526Z,54.30
2018-03-22T06:03:12.778Z,54.14
2018-03-22T06:05:41.817Z,54.44
2018-03-22T06:08:10.069Z,54.14
2018-03-22T06:10:38.340Z,54.16
2018-03-22T06:13:06.591Z,54.04
2018-03-22T06:15:35.619Z,53.85
2018-03-22T06:18:03.886Z,53.77
2018-03-22T06:20:32.139Z,53.45
2018-03-22T06:23:01.158Z,53.48
2018-03-22T06:25:29.415Z,53.82
2018-03-22T06:27:58.442Z,53.67
2018-03-22T06:30:26.690Z,53.30
2018-03-22T06:32:54.953Z,52.89
2018-03-22T06:35:23.979Z,52.81
2018-03-22T06:37:52.233Z,52.87
2018-03-22T06:40:20.487Z,52.28
2018-03-22T06:42:48.756Z,52.19
2018-03-22T06:45:17.008Z,52.20
2018-03-22T06:47:45.275Z,52.16
2018-03-22T06:50:13.526Z,52.09
2018-03-22T06:52:41.787Z,51.81
2018-03-22T06:55:10.042Z,52.22
2018-03-22T06:57:39.087Z,52.29
2018-03-22T07:00:07.354Z,52.38
2018-03-22T07:02:35.624Z,52.76
2018-03-22T07:05:03.886Z,52.48
2018-03-22T07:07:32.144Z,52.48
2018-03-22T07:10:01.170Z,52.79
2018-03-22T07:12:29.431Z,53.11
2018-03-22T07:14:57.696Z,53.26
2018-03-22T07:17:26.711Z,53.59
2018-03-22T07:19:55.865Z,53.52
2018-03-22T07:22:24.118Z,53.97
2018-03-22T07:24:52.377Z,53.60
2018-03-22T07:27:20.787Z,53.91
2018-03-22T07:29:49.015Z,53.82
2018-03-22T07:32:17.263Z,53.59
2018-03-22T07:34:46.287Z,53.56
2018-03-22T07:37:14.542Z,53.78
2018-03-22T07:39:42.799Z,53.98
2018-03-22T07:42:11.827Z,53.81
2018-03-22T07:44:40.870Z,54.17
2018-03-22T07:47:09.126Z,54.26
2018-03-22T07:49:37.382Z,54.08
2018-03-22T07:52:05.642Z,54.38
2018-03-22T07:54:33.891Z,54.42
2018-03-22T07:57:02.921Z,54.45
2018-03-22T07:59:31.175Z,54.44
2018-03-22T08:01:59.443Z,54.27
2018-03-22T08:04:28.462Z,54.40
2018-03-22T08:06:56.718Z,54.82
2018-03-22T08:09:25.028Z,54.81
2018-03-22T08:11:54.001Z,55.01
2018-03-22T08:14:22.251Z,54.90
2018-03-22T08:16:51.280Z,54.96
2018-03-22T08:19:19.530Z,55.00
2018-03-22T08:21:47.794Z,54.99
2018-03-22T08:24:16.803Z,54.85
2018-03-22T08:26:45.083Z,54.79
2018-03-22T08:29:13.383Z,54.90
2018-03-22T08:31:41.618Z,54.90
2018-03-22T08:34:10.638Z,54.48
2018-03-22T08:36:38.887Z,54.23
2018-03-22T08:39:07.899Z,54.21
2018-03-22T08:41:36.149Z,54.15
2018-03-22T08:44:05.167Z,54.10
2018-03-22T08:46:33.415Z,54.13
2018-03-22T08:49:02.438Z,54.07
2018-03-22T08:51:30.682Z,53.58
2018-03-22T08:53:59.700Z,53.43
2018-03-22T08:56:27.960Z,53.19
2018-03-22T08:58:56.969Z,53.21
2018-03-22T09:01:25.234Z,53.12
2018-03-22T09:03:54.243Z,52.65
2018-03-22T09:06:22.498Z,52.54
2018-03-22T09:08:51.504Z,51.91
2018-03-22T09:11:19.758Z,52.28
2018-03-22T09:13:48.771Z,51.63
2018-03-22T09:16:17.026Z,51.42
2018-03-22T09:18:45.270Z,51.70
2018-03-22T09:21:13.523Z,51.77
2018-03-22T09:23:41.766Z,52.45
2018-03-22T09:26:10.048Z,52.41
2018-03-22T09:28:39.050Z,52.53
2018-03-22T09:31:07.295Z,53.20
2018-03-22T09:33:36.315Z,53.05
2018-03-22T09:36:04.562Z,53.11
2018-03-22T09:38:32.832Z,53.44
2018-03-22T09:41:01.065Z,53.45
2018-03-22T09:43:29.314Z,53.87
2018-03-22T09:45:57.555Z,54.11
2018-03-22T09:48:25.806Z,54.35
2018-03-22T09:50:54.060Z,54.21
2018-03-22T09:53:22.306Z,54.50
2018-03-22T09:55:51.321Z,54.49
2018-03-22T09:58:19.582Z,54.89
2018-03-22T10:00:47.842Z,55.15
2018-03-22T10:03:16.866Z,55.60
2018-03-22T10:05:45.115Z,55.52
2018-03-22T10:08:14.122Z,55.22
2018-03-22T10:10:42.384Z,55.58
2018-03-22T10:13:11.409Z,55.64
2018-03-22T10:15:39.659Z,55.63
2018-03-22T10:18:08.667Z,55.98
2018-03-22T10:20:36.919Z,55.60
2018-03-22T10:23:05.935Z,55.47
2018-03-22T10:25:34.178Z,55.76
2018-03-22T10:28:03.192Z,55.80
2018-03-22T10:30:32.210Z,55.32
2018-03-22T10:33:00.459Z,54.48
2018-03-22T10:35:28.712Z,54.21
2018-03-22T10:37:56.954Z,55.15
2018-03-22T10:40:25.203Z,55.03
2018-03-22T10:42:53.450Z,55.10
2018-03-22T10:45:22.476Z,55.09
2018-03-22T10:47:50.714Z,55.80
2018-03-22T10:50:19.739Z,56.09
2018-03-22T10:52:47.982Z,56.29
2018-03-22T10:55:17.114Z,56.51
2018-03-22T10:57:45.363Z,57.11
2018-03-22T11:00:19.979Z,57.53
2018-03-22T11:02:54.082Z,60.55
2018-03-22T11:05:22.327Z,61.15
2018-03-22T11:07:50.582Z,61.08
2018-03-22T11:10:18.836Z,61.26
2018-03-22T11:12:47.090Z,60.77
2018-03-22T11:15:16.099Z,60.91
2018-03-22T11:17:45.120Z,60.51
2018-03-22T11:20:13.371Z,61.17
2018-03-22T11:22:41.629Z,61.92
2018-03-22T11:25:10.642Z,62.02
2018-03-22T11:27:38.902Z,63.22
2018-03-22T11:30:07.923Z,64.71
2018-03-22T11:32:36.180Z,65.05
2018-03-22T11:35:05.193Z,66.07
2018-03-22T11:37:33.454Z,66.47
2018-03-22T11:40:02.467Z,66.58
2018-03-22T11:42:30.715Z,68.86
2018-03-22T11:44:59.731Z,69.64
2018-03-22T11:47:27.987Z,69.45
2018-03-22T11:49:57.006Z,71.79
2018-03-22T11:52:25.258Z,71.21
2018-03-22T11:54:54.267Z,70.07
2018-03-22T11:57:22.738Z,70.34
2018-03-22T11:59:50.991Z,70.21
2018-03-22T12:02:19.999Z,71.55
2018-03-22T12:04:48.309Z,73.07
2018-03-22T12:07:17.314Z,75.34
2018-03-22T12:09:45.539Z,76.02
2018-03-22T12:12:14.556Z,78.04
2018-03-22T12:14:42.816Z,78.34
2018-03-22T12:17:11.074Z,78.56
2018-03-22T12:19:40.109Z,78.47
2018-03-22T12:22:08.366Z,77.75
2018-03-22T12:24:36.626Z,77.52
2018-03-22T12:27:04.918Z,79.35
2018-03-22T12:29:33.190Z,80.59
2018-03-22T12:32:01.446Z,82.43
2018-03-22T12:34:30.466Z,82.69
2018-03-22T12:36:58.727Z,83.09
2018-03-22T12:39:27.024Z,81.92
2018-03-22T12:41:55.286Z,81.17
2018-03-22T12:44:23.539Z,80.20
2018-03-22T12:46:52.566Z,79.67
2018-03-22T12:49:20.816Z,77.13
2018-03-22T12:51:49.867Z,76.39
2018-03-22T12:54:18.116Z,76.48
2018-03-22T12:56:46.413Z,77.18
2018-03-22T12:59:14.627Z,77.30
2018-03-22T13:01:43.666Z,77.99
2018-03-22T13:04:11.902Z,78.05
2018-03-22T13:06:40.923Z,77.81
2018-03-22T13:09:09.187Z,77.47
2018-03-22T13:11:37.438Z,76.83
2018-03-22T13:14:06.516Z,77.73
2018-03-22T13:16:34.772Z,77.66
2018-03-22T13:19:03.031Z,77.72
2018-03-22T13:21:31.298Z,78.07
2018-03-22T13:23:59.565Z,77.79
2018-03-22T13:26:27.814Z,78.05
2018-03-22T13:28:56.830Z,78.54
2018-03-22T13:31:25.083Z,79.43
2018-03-22T13:33:54.203Z,80.95
2018-03-22T13:36:22.463Z,81.48
2018-03-22T13:38:50.729Z,83.34
2018-03-22T13:41:19.742Z,83.83
2018-03-22T13:43:48.009Z,84.23
2018-03-22T13:46:17.026Z,84.85
2018-03-22T13:48:45.294Z,85.20
2018-03-22T13:51:13.562Z,86.03
2018-03-22T13:53:42.578Z,86.17
2018-03-22T13:56:10.835Z,87.26
2018-03-22T13:58:39.096Z,87.02
2018-03-22T14:01:08.115Z,87.27
2018-03-22T14:03:36.363Z,86.85
2018-03-22T14:06:05.388Z,88.09
2018-03-22T14:08:33.644Z,88.36
2018-03-22T14:11:01.904Z,88.94
2018-03-22T14:13:30.920Z,89.49
2018-03-22T14:15:59.190Z,89.78
2018-03-22T14:18:27.443Z,89.47
2018-03-22T14:20:56.467Z,90.47
2018-03-22T14:23:24.717Z,90.87
2018-03-22T14:25:53.739Z,90.37
2018-03-22T14:28:22.000Z,90.64
2018-03-22T14:30:50.272Z,90.89
2018-03-22T14:33:18.526Z,90.58
2018-03-22T14:35:47.546Z,90.45
2018-03-22T14:38:15.807Z,90.90
2018-03-22T14:40:44.823Z,90.80
2018-03-22T14:43:13.088Z,90.91
2018-03-22T14:45:41.335Z,91.58
2018-03-22T14:48:09.597Z,91.30
2018-03-22T14:50:37.850Z,91.72
2018-03-22T14:53:06.110Z,91.29
2018-03-22T14:55:34.372Z,91.29
2018-03-22T14:58:02.641Z,91.26
2018-03-22T15:00:30.929Z,91.64
2018-03-22T15:02:59.920Z,91.73
2018-03-22T15:05:28.167Z,91.69
2018-03-22T15:07:57.196Z,91.46
2018-03-22T15:10:25.491Z,91.45
2018-03-22T15:12:53.734Z,91.43
2018-03-22T15:15:21.986Z,91.79
2018-03-22T15:17:51.003Z,91.76
2018-03-22T15:20:19.266Z,90.86
2018-03-22T15:22:48.280Z,91.04
2018-03-22T15:25:16.545Z,90.97
2018-03-22T15:27:44.793Z,91.38
2018-03-22T15:30:13.826Z,91.30
2018-03-22T15:32:42.092Z,91.76
2018-03-22T15:35:10.356Z,91.78
2018-03-22T15:37:39.373Z,91.92
2018-03-22T15:40:07.631Z,91.90
2018-03-22T15:42:35.884Z,92.42
2018-03-22T15:45:04.139Z,92.44
2018-03-22T15:47:32.395Z,92.35
2018-03-22T15:50:00.653Z,92.92
2018-03-22T15:52:28.916Z,92.81
2018-03-22T15:54:57.171Z,92.90
2018-03-22T15:57:26.186Z,93.28
2018-03-22T15:59:54.456Z,92.87
2018-03-22T16:02:22.707Z,92.95
2018-03-22T16:04:51.733Z,93.32
2018-03-22T16:07:19.982Z,93.17
2018-03-22T16:09:49.011Z,93.58
2018-03-22T16:12:17.262Z,93.22
2018-03-22T16:14:46.280Z,93.32
2018-03-22T16:17:14.531Z,93.45
2018-03-22T16:19:43.558Z,93.30
2018-03-22T16:22:11.810Z,93.27
2018-03-22T16:24:40.059Z,93.48
2018-03-22T16:27:09.082Z,93.40
2018-03-22T16:29:37.339Z,93.36
2018-03-22T16:32:05.599Z,93.39
2018-03-22T16:34:34.618Z,93.32
2018-03-22T16:37:02.879Z,93.35
2018-03-22T16:39:31.895Z,93.39
2018-03-22T16:42:00.159Z,93.26
2018-03-22T16:44:28.423Z,93.06
2018-03-22T16:46:57.439Z,93.43
2018-03-22T16:49:25.697Z,93.24
2018-03-22T16:51:54.715Z,93.30
2018-03-22T16:54:22.967Z,93.35
2018-03-22T16:56:51.223Z,93.50
2018-03-22T16:59:20.260Z,93.41
2018-03-22T17:01:48.522Z,93.05
2018-03-22T17:04:16.771Z,93.49
2018-03-22T17:06:45.798Z,93.21
2018-03-22T17:09:14.051Z,93.37
2018-03-22T17:11:43.078Z,93.28
2018-03-22T17:14:11.330Z,93.26
2018-03-22T17:16:39.597Z,93.20
2018-03-22T17:19:08.619Z,92.97
2018-03-22T17:21:36.874Z,92.88
2018-03-22T17:24:05.139Z,93.05
2018-03-22T17:26:34.162Z,92.85
2018-03-22T17:29:02.421Z,92.96
2018-03-22T17:31:30.698Z,93.05
2018-03-22T17:33:58.950Z,93.15
2018-03-22T17:36:27.962Z,93.12
2018-03-22T17:38:56.223Z,93.28
2018-03-22T17:41:25.351Z,93.15
2018-03-22T17:43:53.665Z,93.17
2018-03-22T17:46:21.910Z,93.25
2018-03-22T17:48:50.172Z,93.23
2018-03-22T17:51:18.427Z,93.31
2018-03-22T17:53:47.448Z,93.26
2018-03-22T17:56:15.707Z,93.25
2018-03-22T17:58:43.959Z,93.30
2018-03-22T18:01:12.980Z,93.36
2018-03-22T18:03:41.236Z,93.17
2018-03-22T18:06:10.260Z,93.07
2018-03-22T18:08:38.528Z,93.05
2018-03-22T18:11:06.795Z,93.13
2018-03-22T18:13:35.050Z,93.30
2018-03-22T18:16:04.122Z,93.48
2018-03-22T18:18:32.333Z,93.20
2018-03-22T18:21:01.356Z,93.34
2018-03-22T18:23:29.611Z,93.10
2018-03-22T18:25:57.874Z,93.20
2018-03-22T18:28:26.980Z,93.39
2018-03-22T18:30:55.998Z,93.46
2018-03-22T18:33:24.258Z,93.54
2018-03-22T18:35:52.912Z,93.51
2018-03-22T18:38:21.161Z,93.61
2018-03-22T18:40:49.423Z,93.59
2018-03-22T18:43:17.671Z,93.36
2018-03-22T18:45:45.936Z,93.21
2018-03-22T18:48:14.183Z,93.28
2018-03-22T18:50:42.444Z,93.26
2018-03-22T18:53:10.771Z,93.17
2018-03-22T18:55:39.078Z,93.34
2018-03-22T18:58:08.043Z,93.25
2018-03-22T19:00:36.302Z,93.46
2018-03-22T19:03:04.558Z,93.46
2018-03-22T19:05:33.607Z,93.40
2018-03-22T19:08:01.856Z,93.53
2018-03-22T19:10:30.110Z,93.50
2018-03-22T19:12:59.135Z,93.61
2018-03-22T19:15:27.392Z,93.71
2018-03-22T19:17:56.513Z,93.88
2018-03-22T19:20:24.758Z,93.73
2018-03-22T19:22:53.791Z,93.73
2018-03-22T19:25:22.089Z,93.85
2018-03-22T19:27:50.308Z,93.92
2018-03-22T19:30:19.324Z,93.82
2018-03-22T19:32:47.586Z,93.89
2018-03-22T19:35:15.836Z,93.75
2018-03-22T19:37:44.092Z,93.99
2018-03-22T19:40:12.346Z,94.09
2018-03-22T19:42:40.713Z,93.96
2018-03-22T19:45:08.966Z,94.00
2018-03-22T19:47:37.223Z,94.28
2018-03-22T19:50:06.239Z,94.10
2018-03-22T19:52:35.499Z,94.03
2018-03-22T19:55:03.789Z,94.17
2018-03-22T19:57:32.947Z,94.37
2018-03-22T20:00:05.038Z,94.48
2018-03-22T20:02:33.435Z,94.51
2018-03-22T20:05:16.698Z,94.46
2018-03-22T20:07:45.012Z,94.49
2018-03-22T20:10:13.290Z,94.61
2018-03-22T20:12:45.421Z,94.62
2018-03-22T20:15:13.764Z,94.61
2018-03-22T20:17:42.780Z,94.68
2018-03-22T20:20:11.040Z,94.61
2018-03-22T20:22:39.294Z,94.54
2018-03-22T20:25:08.403Z,94.56
2018-03-22T20:27:37.781Z,94.65
2018-03-22T20:30:06.102Z,94.82
2018-03-22T20:32:34.376Z,94.86
2018-03-22T20:35:02.665Z,94.82
2018-03-22T20:37:30.912Z,94.93
2018-03-22T20:39:59.938Z,94.87
2018-03-22T20:42:28.205Z,94.87
2018-03-22T20:44:56.474Z,94.87
2018-03-22T20:47:24.727Z,95.05
2018-03-22T20:49:53.755Z,94.90
2018-03-22T20:52:22.003Z,94.77
2018-03-22T20:54:51.035Z,94.95
2018-03-22T20:57:19.275Z,94.94
2018-03-22T20:59:47.541Z,94.93
2018-03-22T21:02:16.568Z,94.71
2018-03-22T21:04:47.488Z,94.92
2018-03-22T21:07:15.791Z,94.76
2018-03-22T21:09:44.086Z,94.83
2018-03-22T21:12:12.350Z,94.71
2018-03-22T21:14:40.597Z,94.70
2018-03-22T21:17:08.859Z,94.68
2018-03-22T21:19:37.878Z,94.78
2018-03-22T21:22:06.167Z,94.85
2018-03-22T21:24:34.466Z,94.82
2018-03-22T21:27:02.810Z,94.89
2018-03-22T21:29:31.266Z,94.87
2018-03-22T21:31:59.531Z,94.98
2018-03-22T21:34:28.544Z,94.90
2018-03-22T21:36:56.822Z,94.94
2018-03-22T21:39:25.069Z,95.00
2018-03-22T21:42:06.739Z,94.91
2018-03-22T21:44:34.994Z,94.96
2018-03-22T21:47:21.027Z,94.94
2018-03-22T21:49:50.054Z,94.91
2018-03-22T21:52:36.078Z,94.97
2018-03-22T21:55:04.330Z,94.87
2018-03-22T21:57:32.599Z,94.79
2018-03-22T22:00:00.876Z,94.60
2018-03-22T22:02:29.131Z,94.68
2018-03-22T22:04:57.404Z,94.83
2018-03-22T22:07:26.419Z,95.02
2018-03-22T22:09:54.667Z,94.91
2018-03-22T22:12:23.697Z,94.98
2018-03-22T22:14:56.698Z,94.81
2018-03-22T22:17:24.953Z,94.84
2018-03-22T22:19:53.202Z,94.90
2018-03-22T22:22:21.466Z,94.88
2018-03-22T22:24:50.482Z,94.75
2018-03-22T22:27:18.941Z,94.84
2018-03-22T22:29:47.965Z,94.75
2018-03-22T22:32:16.221Z,94.81
2018-03-22T22:34:44.474Z,94.72
2018-03-22T22:37:12.900Z,94.74
2018-03-22T22:39:41.154Z,94.82
2018-03-22T22:42:09.423Z,94.86
2018-03-22T22:44:38.447Z,94.79
2018-03-22T22:47:06.743Z,94.90
2018-03-22T22:49:35.041Z,94.91
2018-03-22T22:52:03.291Z,94.96
2018-03-22T22:54:31.551Z,94.80
2018-03-22T22:56:59.811Z,94.78
2018-03-22T22:59:28.070Z,94.83
2018-03-22T23:01:57.086Z,94.83
2018-03-22T23:04:25.345Z,94.93
2018-03-22T23:06:54.365Z,95.03
2018-03-22T23:09:22.619Z,95.00
2018-03-22T23:11:50.871Z,94.96
2018-03-22T23:14:19.903Z,95.03
2018-03-22T23:16:48.162Z,95.07
2018-03-22T23:19:16.426Z,95.10
2018-03-22T23:21:45.434Z,95.12
2018-03-22T23:24:13.696Z,95.26
2018-03-22T23:26:42.720Z,95.27
2018-03-22T23:29:10.985Z,95.29
2018-03-22T23:31:39.237Z,95.41
2018-03-22T23:34:08.258Z,95.36
2018-03-22T23:36:36.507Z,95.22
2018-03-22T23:39:05.529Z,95.30
2018-03-22T23:41:33.787Z,95.27
2018-03-22T23:44:02.046Z,95.28
2018-03-22T23:46:31.066Z,95.21
2018-03-22T23:48:59.320Z,95.16
2018-03-22T23:51:28.348Z,95.12
2018-03-22T23:53:56.654Z,95.07
2018-03-22T23:56:24.907Z,95.10
2018-03-22T23:58:53.157Z,95.11
